sensor_id;sensor_type;location;lat;lon;timestamp;temperature;humidity
35523;DHT22;61478;50.820;4.330;2023-11-21T00:02:02;11.20;99.90
35523;DHT22;61478;50.820;4.330;2023-11-21T00:04:29;11.10;99.90
35523;DHT22;61478;50.820;4.330;2023-11-21T00:06:55;11.00;99.90
35523;DHT22;61478;50.820;4.330;2023-11-21T00:09:21;11.00;99.90
35523;DHT22;61478;50.820;4.330;2023-11-21T00:11:47;10.90;99.90
35523;DHT22;61478;50.820;4.330;2023-11-21T00:14:12;10.80;99.90
35523;DHT22;61478;50.820;4.330;2023-11-21T00:16:41;10.60;99.90
35523;DHT22;61478;50.820;4.330;2023-11-21T00:19:06;10.60;99.90
35523;DHT22;61478;50.820;4.330;2023-11-21T00:21:32;10.60;99.90
35523;DHT22;61478;50.820;4.330;2023-11-21T00:23:57;10.50;99.90
35523;DHT22;61478;50.820;4.330;2023-11-21T00:26:23;10.50;99.90
35523;DHT22;61478;50.820;4.330;2023-11-21T00:28:49;10.40;99.90
35523;DHT22;61478;50.820;4.330;2023-11-21T00:31:15;10.50;99.90
35523;DHT22;61478;50.820;4.330;2023-11-21T00:33:41;10.50;99.90
35523;DHT22;61478;50.820;4.330;2023-11-21T00:36:07;10.40;99.90
35523;DHT22;61478;50.820;4.330;2023-11-21T00:38:35;10.40;99.90
35523;DHT22;61478;50.820;4.330;2023-11-21T00:41:01;10.30;99.90
35523;DHT22;61478;50.820;4.330;2023-11-21T00:43:26;10.30;99.90
35523;DHT22;61478;50.820;4.330;2023-11-21T00:45:52;10.30;99.90
35523;DHT22;61478;50.820;4.330;2023-11-21T00:48:18;10.30;99.90
35523;DHT22;61478;50.820;4.330;2023-11-21T00:50:44;10.20;99.90
35523;DHT22;61478;50.820;4.330;2023-11-21T00:53:09;10.10;99.90
35523;DHT22;61478;50.820;4.330;2023-11-21T00:55:36;10.10;99.90
35523;DHT22;61478;50.820;4.330;2023-11-21T00:58:02;10.00;99.90
35523;DHT22;61478;50.820;4.330;2023-11-21T01:00:29;10.00;99.90
35523;DHT22;61478;50.820;4.330;2023-11-21T01:02:55;9.90;99.90
35523;DHT22;61478;50.820;4.330;2023-11-21T01:05:20;9.90;99.90
35523;DHT22;61478;50.820;4.330;2023-11-21T01:07:46;9.90;99.90
35523;DHT22;61478;50.820;4.330;2023-11-21T01:10:11;9.90;99.90
35523;DHT22;61478;50.820;4.330;2023-11-21T01:12:37;10.00;99.90
35523;DHT22;61478;50.820;4.330;2023-11-21T01:15:04;9.90;99.90
35523;DHT22;61478;50.820;4.330;2023-11-21T01:17:32;10.00;99.90
35523;DHT22;61478;50.820;4.330;2023-11-21T01:19:59;10.20;99.90
35523;DHT22;61478;50.820;4.330;2023-11-21T01:22:25;10.10;99.90
35523;DHT22;61478;50.820;4.330;2023-11-21T01:24:54;10.20;99.90
35523;DHT22;61478;50.820;4.330;2023-11-21T01:27:20;10.30;99.90
35523;DHT22;61478;50.820;4.330;2023-11-21T01:29:46;10.30;99.90
35523;DHT22;61478;50.820;4.330;2023-11-21T01:32:11;10.20;99.90
35523;DHT22;61478;50.820;4.330;2023-11-21T01:34:37;10.10;99.90
35523;DHT22;61478;50.820;4.330;2023-11-21T01:37:02;10.20;99.90
35523;DHT22;61478;50.820;4.330;2023-11-21T01:39:30;10.30;99.90
35523;DHT22;61478;50.820;4.330;2023-11-21T01:41:57;10.30;99.90
35523;DHT22;61478;50.820;4.330;2023-11-21T01:44:26;10.30;99.90
35523;DHT22;61478;50.820;4.330;2023-11-21T01:46:52;10.40;99.90
35523;DHT22;61478;50.820;4.330;2023-11-21T01:49:17;10.40;99.90
35523;DHT22;61478;50.820;4.330;2023-11-21T01:51:44;10.40;99.90
35523;DHT22;61478;50.820;4.330;2023-11-21T01:54:11;10.40;99.90
35523;DHT22;61478;50.820;4.330;2023-11-21T01:56:37;10.50;99.90
35523;DHT22;61478;50.820;4.330;2023-11-21T01:59:03;10.40;99.90
35523;DHT22;61478;50.820;4.330;2023-11-21T02:01:29;10.60;99.90
35523;DHT22;61478;50.820;4.330;2023-11-21T02:03:54;10.50;99.90
35523;DHT22;61478;50.820;4.330;2023-11-21T02:06:21;10.60;99.90
35523;DHT22;61478;50.820;4.330;2023-11-21T02:08:47;10.60;99.90
35523;DHT22;61478;50.820;4.330;2023-11-21T02:11:13;10.50;99.90
35523;DHT22;61478;50.820;4.330;2023-11-21T02:13:38;10.50;99.90
35523;DHT22;61478;50.820;4.330;2023-11-21T02:16:09;10.50;99.90
35523;DHT22;61478;50.820;4.330;2023-11-21T02:18:35;10.40;99.90
35523;DHT22;61478;50.820;4.330;2023-11-21T02:21:03;10.40;99.90
35523;DHT22;61478;50.820;4.330;2023-11-21T02:23:29;10.40;99.90
35523;DHT22;61478;50.820;4.330;2023-11-21T02:25:54;10.40;99.90
35523;DHT22;61478;50.820;4.330;2023-11-21T02:28:20;10.50;99.90
35523;DHT22;61478;50.820;4.330;2023-11-21T02:30:54;10.60;99.90
35523;DHT22;61478;50.820;4.330;2023-11-21T02:33:24;10.60;99.90
35523;DHT22;61478;50.820;4.330;2023-11-21T02:35:50;10.50;99.90
35523;DHT22;61478;50.820;4.330;2023-11-21T02:38:18;10.50;99.90
35523;DHT22;61478;50.820;4.330;2023-11-21T02:40:44;10.40;99.90
35523;DHT22;61478;50.820;4.330;2023-11-21T02:43:09;10.40;99.90
35523;DHT22;61478;50.820;4.330;2023-11-21T02:45:35;10.40;99.90
35523;DHT22;61478;50.820;4.330;2023-11-21T02:48:02;10.40;99.90
35523;DHT22;61478;50.820;4.330;2023-11-21T02:50:27;10.30;99.90
35523;DHT22;61478;50.820;4.330;2023-11-21T02:52:53;10.30;99.90
35523;DHT22;61478;50.820;4.330;2023-11-21T02:55:19;10.30;99.90
35523;DHT22;61478;50.820;4.330;2023-11-21T02:57:44;10.30;99.90
35523;DHT22;61478;50.820;4.330;2023-11-21T03:00:10;10.30;99.90
35523;DHT22;61478;50.820;4.330;2023-11-21T03:02:38;10.30;99.90
35523;DHT22;61478;50.820;4.330;2023-11-21T03:05:04;10.40;99.90
35523;DHT22;61478;50.820;4.330;2023-11-21T03:07:30;10.30;99.90
35523;DHT22;61478;50.820;4.330;2023-11-21T03:09:55;10.30;99.90
35523;DHT22;61478;50.820;4.330;2023-11-21T03:12:21;10.40;99.90
35523;DHT22;61478;50.820;4.330;2023-11-21T03:14:47;10.40;99.90
35523;DHT22;61478;50.820;4.330;2023-11-21T03:17:13;10.40;99.90
35523;DHT22;61478;50.820;4.330;2023-11-21T03:19:41;10.30;99.90
35523;DHT22;61478;50.820;4.330;2023-11-21T03:22:07;10.10;99.90
35523;DHT22;61478;50.820;4.330;2023-11-21T03:24:32;10.20;99.90
35523;DHT22;61478;50.820;4.330;2023-11-21T03:26:58;10.20;99.90
35523;DHT22;61478;50.820;4.330;2023-11-21T03:29:23;10.20;99.90
35523;DHT22;61478;50.820;4.330;2023-11-21T03:31:49;10.20;99.90
35523;DHT22;61478;50.820;4.330;2023-11-21T03:34:15;10.30;99.90
35523;DHT22;61478;50.820;4.330;2023-11-21T03:36:41;10.30;99.90
35523;DHT22;61478;50.820;4.330;2023-11-21T03:39:07;10.30;99.90
35523;DHT22;61478;50.820;4.330;2023-11-21T03:41:32;10.30;99.90
35523;DHT22;61478;50.820;4.330;2023-11-21T03:43:59;10.30;99.90
35523;DHT22;61478;50.820;4.330;2023-11-21T03:46:24;10.30;99.90
35523;DHT22;61478;50.820;4.330;2023-11-21T03:48:50;10.40;99.90
35523;DHT22;61478;50.820;4.330;2023-11-21T03:51:16;10.50;99.90
35523;DHT22;61478;50.820;4.330;2023-11-21T03:53:42;10.50;99.90
35523;DHT22;61478;50.820;4.330;2023-11-21T03:56:07;10.40;99.90
35523;DHT22;61478;50.820;4.330;2023-11-21T03:58:33;10.50;99.90
35523;DHT22;61478;50.820;4.330;2023-11-21T04:00:59;10.60;99.90
35523;DHT22;61478;50.820;4.330;2023-11-21T04:03:25;10.70;99.90
35523;DHT22;61478;50.820;4.330;2023-11-21T04:05:50;10.90;99.90
35523;DHT22;61478;50.820;4.330;2023-11-21T04:08:16;10.90;99.90
35523;DHT22;61478;50.820;4.330;2023-11-21T04:10:41;10.90;99.90
35523;DHT22;61478;50.820;4.330;2023-11-21T04:13:07;10.80;99.90
35523;DHT22;61478;50.820;4.330;2023-11-21T04:15:33;10.80;99.90
35523;DHT22;61478;50.820;4.330;2023-11-21T04:17:58;10.80;99.90
35523;DHT22;61478;50.820;4.330;2023-11-21T04:20:24;10.80;99.90
35523;DHT22;61478;50.820;4.330;2023-11-21T04:22:49;10.70;99.90
35523;DHT22;61478;50.820;4.330;2023-11-21T04:25:15;10.60;99.90
35523;DHT22;61478;50.820;4.330;2023-11-21T04:27:41;10.60;99.90
35523;DHT22;61478;50.820;4.330;2023-11-21T04:30:09;10.70;99.90
35523;DHT22;61478;50.820;4.330;2023-11-21T04:32:35;10.60;99.90
35523;DHT22;61478;50.820;4.330;2023-11-21T04:35:00;10.60;99.90
35523;DHT22;61478;50.820;4.330;2023-11-21T04:37:26;10.60;99.90
35523;DHT22;61478;50.820;4.330;2023-11-21T04:39:52;10.60;99.90
35523;DHT22;61478;50.820;4.330;2023-11-21T04:42:17;10.70;99.90
35523;DHT22;61478;50.820;4.330;2023-11-21T04:44:43;10.60;99.90
35523;DHT22;61478;50.820;4.330;2023-11-21T04:47:09;10.50;99.90
35523;DHT22;61478;50.820;4.330;2023-11-21T04:49:35;10.60;99.90
35523;DHT22;61478;50.820;4.330;2023-11-21T04:52:00;10.60;99.90
35523;DHT22;61478;50.820;4.330;2023-11-21T04:54:27;10.60;99.90
35523;DHT22;61478;50.820;4.330;2023-11-21T04:56:52;10.70;99.90
35523;DHT22;61478;50.820;4.330;2023-11-21T04:59:18;10.70;99.90
35523;DHT22;61478;50.820;4.330;2023-11-21T05:01:43;10.80;99.90
35523;DHT22;61478;50.820;4.330;2023-11-21T05:04:09;10.80;99.90
35523;DHT22;61478;50.820;4.330;2023-11-21T05:06:34;10.90;99.90
35523;DHT22;61478;50.820;4.330;2023-11-21T05:09:00;10.80;99.90
35523;DHT22;61478;50.820;4.330;2023-11-21T05:11:26;10.80;99.90
35523;DHT22;61478;50.820;4.330;2023-11-21T05:13:52;10.70;99.90
35523;DHT22;61478;50.820;4.330;2023-11-21T05:16:19;10.60;99.90
35523;DHT22;61478;50.820;4.330;2023-11-21T05:18:44;10.60;99.90
35523;DHT22;61478;50.820;4.330;2023-11-21T05:21:10;10.60;99.90
35523;DHT22;61478;50.820;4.330;2023-11-21T05:23:36;10.60;99.90
35523;DHT22;61478;50.820;4.330;2023-11-21T05:26:03;10.60;99.90
35523;DHT22;61478;50.820;4.330;2023-11-21T05:28:28;10.60;99.90
35523;DHT22;61478;50.820;4.330;2023-11-21T05:30:54;10.50;99.90
35523;DHT22;61478;50.820;4.330;2023-11-21T05:33:20;10.50;99.90
35523;DHT22;61478;50.820;4.330;2023-11-21T05:35:46;10.50;99.90
35523;DHT22;61478;50.820;4.330;2023-11-21T05:38:12;10.60;99.90
35523;DHT22;61478;50.820;4.330;2023-11-21T05:40:37;10.90;99.90
35523;DHT22;61478;50.820;4.330;2023-11-21T05:43:03;10.90;99.90
35523;DHT22;61478;50.820;4.330;2023-11-21T05:45:30;10.90;99.90
35523;DHT22;61478;50.820;4.330;2023-11-21T05:47:57;11.00;99.90
35523;DHT22;61478;50.820;4.330;2023-11-21T05:50:23;11.10;99.90
35523;DHT22;61478;50.820;4.330;2023-11-21T05:52:48;11.10;99.90
35523;DHT22;61478;50.820;4.330;2023-11-21T05:55:14;11.10;99.90
35523;DHT22;61478;50.820;4.330;2023-11-21T05:57:41;11.10;99.90
35523;DHT22;61478;50.820;4.330;2023-11-21T06:00:08;11.10;99.90
35523;DHT22;61478;50.820;4.330;2023-11-21T06:02:37;11.10;99.90
35523;DHT22;61478;50.820;4.330;2023-11-21T06:05:03;11.10;99.90
35523;DHT22;61478;50.820;4.330;2023-11-21T06:07:29;11.10;99.90
35523;DHT22;61478;50.820;4.330;2023-11-21T06:09:55;11.10;99.90
35523;DHT22;61478;50.820;4.330;2023-11-21T06:12:20;11.00;99.90
35523;DHT22;61478;50.820;4.330;2023-11-21T06:14:46;11.10;99.90
35523;DHT22;61478;50.820;4.330;2023-11-21T06:17:13;11.20;99.90
35523;DHT22;61478;50.820;4.330;2023-11-21T06:19:39;11.30;99.90
35523;DHT22;61478;50.820;4.330;2023-11-21T06:22:05;11.10;99.90
35523;DHT22;61478;50.820;4.330;2023-11-21T06:24:31;11.00;99.90
35523;DHT22;61478;50.820;4.330;2023-11-21T06:26:57;11.00;99.90
35523;DHT22;61478;50.820;4.330;2023-11-21T06:29:22;11.00;99.90
35523;DHT22;61478;50.820;4.330;2023-11-21T06:31:49;10.90;99.90
35523;DHT22;61478;50.820;4.330;2023-11-21T06:34:14;11.00;99.90
35523;DHT22;61478;50.820;4.330;2023-11-21T06:36:40;11.00;99.90
35523;DHT22;61478;50.820;4.330;2023-11-21T06:39:05;11.00;99.90
35523;DHT22;61478;50.820;4.330;2023-11-21T06:41:34;11.10;99.90
35523;DHT22;61478;50.820;4.330;2023-11-21T06:43:59;11.10;99.90
35523;DHT22;61478;50.820;4.330;2023-11-21T06:46:25;11.00;99.90
35523;DHT22;61478;50.820;4.330;2023-11-21T06:48:51;11.00;99.90
35523;DHT22;61478;50.820;4.330;2023-11-21T06:51:16;11.10;99.90
35523;DHT22;61478;50.820;4.330;2023-11-21T06:53:42;11.20;99.90
35523;DHT22;61478;50.820;4.330;2023-11-21T06:56:17;11.10;99.90
35523;DHT22;61478;50.820;4.330;2023-11-21T06:58:43;11.10;99.90
35523;DHT22;61478;50.820;4.330;2023-11-21T07:01:11;11.20;99.90
35523;DHT22;61478;50.820;4.330;2023-11-21T07:03:36;11.30;99.90
35523;DHT22;61478;50.820;4.330;2023-11-21T07:06:03;11.20;99.90
35523;DHT22;61478;50.820;4.330;2023-11-21T07:08:28;11.10;99.90
35523;DHT22;61478;50.820;4.330;2023-11-21T07:10:54;11.10;99.90
35523;DHT22;61478;50.820;4.330;2023-11-21T07:13:19;11.00;99.90
35523;DHT22;61478;50.820;4.330;2023-11-21T07:15:46;11.10;99.90
35523;DHT22;61478;50.820;4.330;2023-11-21T07:18:13;11.30;99.90
35523;DHT22;61478;50.820;4.330;2023-11-21T07:20:39;11.50;99.90
35523;DHT22;61478;50.820;4.330;2023-11-21T07:23:04;11.50;99.90
35523;DHT22;61478;50.820;4.330;2023-11-21T07:25:31;11.50;99.90
35523;DHT22;61478;50.820;4.330;2023-11-21T07:27:57;11.50;99.90
35523;DHT22;61478;50.820;4.330;2023-11-21T07:30:22;11.40;99.90
35523;DHT22;61478;50.820;4.330;2023-11-21T07:32:48;11.30;99.90
35523;DHT22;61478;50.820;4.330;2023-11-21T07:35:14;11.30;99.90
35523;DHT22;61478;50.820;4.330;2023-11-21T07:37:40;11.30;99.90
35523;DHT22;61478;50.820;4.330;2023-11-21T07:40:05;11.30;99.90
35523;DHT22;61478;50.820;4.330;2023-11-21T07:42:34;11.30;99.90
35523;DHT22;61478;50.820;4.330;2023-11-21T07:44:59;11.40;99.90
35523;DHT22;61478;50.820;4.330;2023-11-21T07:47:25;11.40;99.90
35523;DHT22;61478;50.820;4.330;2023-11-21T07:49:53;11.40;99.90
35523;DHT22;61478;50.820;4.330;2023-11-21T07:52:18;11.40;99.90
35523;DHT22;61478;50.820;4.330;2023-11-21T07:54:46;11.30;99.90
35523;DHT22;61478;50.820;4.330;2023-11-21T07:57:13;11.20;99.90
35523;DHT22;61478;50.820;4.330;2023-11-21T07:59:39;11.10;99.90
35523;DHT22;61478;50.820;4.330;2023-11-21T08:02:06;11.10;99.90
35523;DHT22;61478;50.820;4.330;2023-11-21T08:04:32;11.20;99.90
35523;DHT22;61478;50.820;4.330;2023-11-21T08:06:57;11.20;99.90
35523;DHT22;61478;50.820;4.330;2023-11-21T08:09:23;11.30;99.90
35523;DHT22;61478;50.820;4.330;2023-11-21T08:11:49;11.30;99.90
35523;DHT22;61478;50.820;4.330;2023-11-21T08:14:15;11.30;99.90
35523;DHT22;61478;50.820;4.330;2023-11-21T08:16:40;11.40;99.90
35523;DHT22;61478;50.820;4.330;2023-11-21T08:19:06;11.50;99.90
35523;DHT22;61478;50.820;4.330;2023-11-21T08:21:31;11.60;99.90
35523;DHT22;61478;50.820;4.330;2023-11-21T08:23:57;11.50;99.90
35523;DHT22;61478;50.820;4.330;2023-11-21T08:26:23;11.40;99.90
35523;DHT22;61478;50.820;4.330;2023-11-21T08:28:49;11.50;99.90
35523;DHT22;61478;50.820;4.330;2023-11-21T08:31:14;11.30;99.90
35523;DHT22;61478;50.820;4.330;2023-11-21T08:33:41;11.40;99.90
35523;DHT22;61478;50.820;4.330;2023-11-21T08:36:07;11.50;99.90
35523;DHT22;61478;50.820;4.330;2023-11-21T08:38:33;11.50;99.90
35523;DHT22;61478;50.820;4.330;2023-11-21T08:40:59;11.40;99.90
35523;DHT22;61478;50.820;4.330;2023-11-21T08:43:25;11.40;99.90
35523;DHT22;61478;50.820;4.330;2023-11-21T08:45:52;11.40;99.90
35523;DHT22;61478;50.820;4.330;2023-11-21T08:48:18;11.40;99.90
35523;DHT22;61478;50.820;4.330;2023-11-21T08:50:44;11.40;99.90
35523;DHT22;61478;50.820;4.330;2023-11-21T08:53:09;11.30;99.90
35523;DHT22;61478;50.820;4.330;2023-11-21T08:55:36;11.40;99.90
35523;DHT22;61478;50.820;4.330;2023-11-21T08:58:02;11.50;99.90
35523;DHT22;61478;50.820;4.330;2023-11-21T09:00:31;11.60;99.90
35523;DHT22;61478;50.820;4.330;2023-11-21T09:02:57;11.60;99.90
35523;DHT22;61478;50.820;4.330;2023-11-21T09:05:23;11.80;99.90
35523;DHT22;61478;50.820;4.330;2023-11-21T09:07:48;11.80;99.90
35523;DHT22;61478;50.820;4.330;2023-11-21T09:10:14;11.70;99.90
35523;DHT22;61478;50.820;4.330;2023-11-21T09:12:40;11.70;99.90
35523;DHT22;61478;50.820;4.330;2023-11-21T09:15:06;11.70;99.90
35523;DHT22;61478;50.820;4.330;2023-11-21T09:17:32;11.70;99.90
35523;DHT22;61478;50.820;4.330;2023-11-21T09:19:59;11.70;99.90
35523;DHT22;61478;50.820;4.330;2023-11-21T09:22:24;11.70;99.90
35523;DHT22;61478;50.820;4.330;2023-11-21T09:24:51;11.70;99.90
35523;DHT22;61478;50.820;4.330;2023-11-21T09:27:18;11.70;99.90
35523;DHT22;61478;50.820;4.330;2023-11-21T09:29:45;11.60;99.90
35523;DHT22;61478;50.820;4.330;2023-11-21T09:32:13;11.50;99.90
35523;DHT22;61478;50.820;4.330;2023-11-21T09:34:41;11.60;99.90
35523;DHT22;61478;50.820;4.330;2023-11-21T09:37:07;11.60;99.90
35523;DHT22;61478;50.820;4.330;2023-11-21T09:39:33;11.60;99.90
35523;DHT22;61478;50.820;4.330;2023-11-21T09:42:09;11.70;99.90
35523;DHT22;61478;50.820;4.330;2023-11-21T09:44:36;11.80;99.90
35523;DHT22;61478;50.820;4.330;2023-11-21T09:47:09;11.80;99.90
35523;DHT22;61478;50.820;4.330;2023-11-21T09:49:36;11.90;99.90
35523;DHT22;61478;50.820;4.330;2023-11-21T09:52:02;11.90;99.90
35523;DHT22;61478;50.820;4.330;2023-11-21T09:54:29;12.10;99.90
35523;DHT22;61478;50.820;4.330;2023-11-21T09:56:54;12.10;99.90
35523;DHT22;61478;50.820;4.330;2023-11-21T09:59:21;12.20;99.90
35523;DHT22;61478;50.820;4.330;2023-11-21T10:01:47;12.30;99.90
35523;DHT22;61478;50.820;4.330;2023-11-21T10:04:13;12.30;99.90
35523;DHT22;61478;50.820;4.330;2023-11-21T10:06:39;12.30;99.90
35523;DHT22;61478;50.820;4.330;2023-11-21T10:09:08;12.30;99.90
35523;DHT22;61478;50.820;4.330;2023-11-21T10:11:40;12.30;99.90
35523;DHT22;61478;50.820;4.330;2023-11-21T10:14:15;12.10;99.90
35523;DHT22;61478;50.820;4.330;2023-11-21T10:16:43;12.10;99.90
35523;DHT22;61478;50.820;4.330;2023-11-21T10:19:10;12.10;99.90
35523;DHT22;61478;50.820;4.330;2023-11-21T10:21:37;12.30;99.90
35523;DHT22;61478;50.820;4.330;2023-11-21T10:24:03;12.30;99.90
35523;DHT22;61478;50.820;4.330;2023-11-21T10:26:29;12.50;99.90
35523;DHT22;61478;50.820;4.330;2023-11-21T10:28:57;12.70;99.90
35523;DHT22;61478;50.820;4.330;2023-11-21T10:31:23;12.90;99.90
35523;DHT22;61478;50.820;4.330;2023-11-21T10:33:50;13.00;99.90
35523;DHT22;61478;50.820;4.330;2023-11-21T10:36:24;13.10;99.90
35523;DHT22;61478;50.820;4.330;2023-11-21T10:38:50;13.20;99.90
35523;DHT22;61478;50.820;4.330;2023-11-21T10:41:18;13.30;99.90
35523;DHT22;61478;50.820;4.330;2023-11-21T10:43:44;13.40;99.90
35523;DHT22;61478;50.820;4.330;2023-11-21T10:46:10;13.40;99.90
35523;DHT22;61478;50.820;4.330;2023-11-21T10:48:35;13.50;99.90
35523;DHT22;61478;50.820;4.330;2023-11-21T10:51:06;13.60;99.90
35523;DHT22;61478;50.820;4.330;2023-11-21T10:53:32;13.70;99.90
35523;DHT22;61478;50.820;4.330;2023-11-21T10:56:02;13.70;99.90
35523;DHT22;61478;50.820;4.330;2023-11-21T10:58:30;13.70;99.90
35523;DHT22;61478;50.820;4.330;2023-11-21T11:00:58;13.70;99.90
35523;DHT22;61478;50.820;4.330;2023-11-21T11:03:24;13.70;99.90
35523;DHT22;61478;50.820;4.330;2023-11-21T11:05:49;13.70;99.90
35523;DHT22;61478;50.820;4.330;2023-11-21T11:08:16;13.70;99.90
35523;DHT22;61478;50.820;4.330;2023-11-21T11:10:50;13.80;99.90
35523;DHT22;61478;50.820;4.330;2023-11-21T11:13:15;13.80;99.90
35523;DHT22;61478;50.820;4.330;2023-11-21T11:15:41;13.90;99.90
35523;DHT22;61478;50.820;4.330;2023-11-21T11:18:08;13.90;99.90
35523;DHT22;61478;50.820;4.330;2023-11-21T11:20:34;13.90;99.90
35523;DHT22;61478;50.820;4.330;2023-11-21T11:25:49;14.10;99.90
35523;DHT22;61478;50.820;4.330;2023-11-21T11:28:21;14.10;99.90
35523;DHT22;61478;50.820;4.330;2023-11-21T11:35:57;14.10;99.90
35523;DHT22;61478;50.820;4.330;2023-11-21T11:38:26;14.20;99.90
35523;DHT22;61478;50.820;4.330;2023-11-21T11:40:53;14.20;99.90
35523;DHT22;61478;50.820;4.330;2023-11-21T11:43:25;14.20;99.90
35523;DHT22;61478;50.820;4.330;2023-11-21T11:45:51;14.20;99.90
35523;DHT22;61478;50.820;4.330;2023-11-21T11:48:18;14.20;99.90
35523;DHT22;61478;50.820;4.330;2023-11-21T11:53:44;14.30;99.90
35523;DHT22;61478;50.820;4.330;2023-11-21T11:58:47;14.20;99.90
35523;DHT22;61478;50.820;4.330;2023-11-21T12:01:13;14.20;99.90
35523;DHT22;61478;50.820;4.330;2023-11-21T12:03:38;14.20;99.90
35523;DHT22;61478;50.820;4.330;2023-11-21T12:06:05;14.20;99.90
35523;DHT22;61478;50.820;4.330;2023-11-21T12:08:32;14.30;99.90
35523;DHT22;61478;50.820;4.330;2023-11-21T12:10:58;14.20;99.90
35523;DHT22;61478;50.820;4.330;2023-11-21T12:13:23;14.20;99.90
35523;DHT22;61478;50.820;4.330;2023-11-21T12:15:49;14.10;99.90
35523;DHT22;61478;50.820;4.330;2023-11-21T12:18:14;14.10;99.90
35523;DHT22;61478;50.820;4.330;2023-11-21T12:20:41;14.10;99.90
35523;DHT22;61478;50.820;4.330;2023-11-21T12:23:08;14.10;99.90
35523;DHT22;61478;50.820;4.330;2023-11-21T12:25:37;14.00;99.90
35523;DHT22;61478;50.820;4.330;2023-11-21T12:28:02;14.10;99.90
35523;DHT22;61478;50.820;4.330;2023-11-21T12:30:29;14.10;99.90
35523;DHT22;61478;50.820;4.330;2023-11-21T12:32:56;14.10;99.90
35523;DHT22;61478;50.820;4.330;2023-11-21T12:35:27;14.20;99.90
35523;DHT22;61478;50.820;4.330;2023-11-21T12:37:53;14.10;99.90
35523;DHT22;61478;50.820;4.330;2023-11-21T12:40:19;14.10;99.90
35523;DHT22;61478;50.820;4.330;2023-11-21T12:42:46;14.10;99.90
35523;DHT22;61478;50.820;4.330;2023-11-21T12:47:51;14.00;99.90
35523;DHT22;61478;50.820;4.330;2023-11-21T12:50:21;14.00;99.90
35523;DHT22;61478;50.820;4.330;2023-11-21T12:52:51;13.90;99.90
35523;DHT22;61478;50.820;4.330;2023-11-21T12:55:22;13.90;99.90
35523;DHT22;61478;50.820;4.330;2023-11-21T12:57:51;13.90;99.90
35523;DHT22;61478;50.820;4.330;2023-11-21T13:00:20;14.00;99.90
35523;DHT22;61478;50.820;4.330;2023-11-21T13:02:56;14.00;99.90
35523;DHT22;61478;50.820;4.330;2023-11-21T13:05:28;14.10;99.90
35523;DHT22;61478;50.820;4.330;2023-11-21T13:07:54;14.20;99.90
35523;DHT22;61478;50.820;4.330;2023-11-21T13:10:26;14.20;99.90
35523;DHT22;61478;50.820;4.330;2023-11-21T13:12:55;14.00;99.90
35523;DHT22;61478;50.820;4.330;2023-11-21T13:15:23;14.00;99.90
35523;DHT22;61478;50.820;4.330;2023-11-21T13:17:50;14.00;99.90
35523;DHT22;61478;50.820;4.330;2023-11-21T13:20:16;13.90;99.90
35523;DHT22;61478;50.820;4.330;2023-11-21T13:22:46;13.90;99.90
35523;DHT22;61478;50.820;4.330;2023-11-21T13:25:12;13.90;99.90
35523;DHT22;61478;50.820;4.330;2023-11-21T13:27:39;13.90;99.90
35523;DHT22;61478;50.820;4.330;2023-11-21T13:30:06;14.00;99.90
35523;DHT22;61478;50.820;4.330;2023-11-21T13:32:34;14.00;99.90
35523;DHT22;61478;50.820;4.330;2023-11-21T13:34:59;14.00;99.90
35523;DHT22;61478;50.820;4.330;2023-11-21T13:37:25;13.90;99.90
35523;DHT22;61478;50.820;4.330;2023-11-21T13:39:53;14.00;99.90
35523;DHT22;61478;50.820;4.330;2023-11-21T13:42:20;14.00;99.90
35523;DHT22;61478;50.820;4.330;2023-11-21T13:44:55;14.00;99.90
35523;DHT22;61478;50.820;4.330;2023-11-21T13:47:21;14.00;99.90
35523;DHT22;61478;50.820;4.330;2023-11-21T13:49:50;14.00;99.90
35523;DHT22;61478;50.820;4.330;2023-11-21T13:52:15;14.10;99.90
35523;DHT22;61478;50.820;4.330;2023-11-21T13:54:42;14.10;99.90
35523;DHT22;61478;50.820;4.330;2023-11-21T13:57:08;14.00;99.90
35523;DHT22;61478;50.820;4.330;2023-11-21T13:59:35;14.00;99.90
35523;DHT22;61478;50.820;4.330;2023-11-21T14:02:02;14.00;99.90
35523;DHT22;61478;50.820;4.330;2023-11-21T14:04:42;14.00;99.90
35523;DHT22;61478;50.820;4.330;2023-11-21T14:07:22;13.90;99.90
35523;DHT22;61478;50.820;4.330;2023-11-21T14:09:57;13.90;99.90
35523;DHT22;61478;50.820;4.330;2023-11-21T14:12:24;13.90;99.90
35523;DHT22;61478;50.820;4.330;2023-11-21T14:14:49;13.90;99.90
35523;DHT22;61478;50.820;4.330;2023-11-21T14:17:15;13.80;99.90
35523;DHT22;61478;50.820;4.330;2023-11-21T14:19:41;13.80;99.90
35523;DHT22;61478;50.820;4.330;2023-11-21T14:22:11;13.80;99.90
35523;DHT22;61478;50.820;4.330;2023-11-21T14:24:36;13.90;99.90
35523;DHT22;61478;50.820;4.330;2023-11-21T14:27:02;13.80;99.90
35523;DHT22;61478;50.820;4.330;2023-11-21T14:29:28;13.70;99.90
35523;DHT22;61478;50.820;4.330;2023-11-21T14:31:55;13.80;99.90
35523;DHT22;61478;50.820;4.330;2023-11-21T14:34:23;13.70;99.90
35523;DHT22;61478;50.820;4.330;2023-11-21T14:36:49;13.60;99.90
35523;DHT22;61478;50.820;4.330;2023-11-21T14:39:15;13.60;99.90
35523;DHT22;61478;50.820;4.330;2023-11-21T14:41:52;13.50;99.90
35523;DHT22;61478;50.820;4.330;2023-11-21T14:44:19;13.50;99.90
35523;DHT22;61478;50.820;4.330;2023-11-21T14:46:45;13.50;99.90
35523;DHT22;61478;50.820;4.330;2023-11-21T14:49:14;13.60;99.90
35523;DHT22;61478;50.820;4.330;2023-11-21T14:51:47;13.70;99.90
35523;DHT22;61478;50.820;4.330;2023-11-21T14:54:26;13.80;99.90
35523;DHT22;61478;50.820;4.330;2023-11-21T14:57:11;13.80;99.90
35523;DHT22;61478;50.820;4.330;2023-11-21T14:59:42;13.70;99.90
35523;DHT22;61478;50.820;4.330;2023-11-21T15:02:08;13.70;99.90
35523;DHT22;61478;50.820;4.330;2023-11-21T15:04:43;13.80;99.90
35523;DHT22;61478;50.820;4.330;2023-11-21T15:07:10;13.80;99.90
35523;DHT22;61478;50.820;4.330;2023-11-21T15:09:39;13.80;99.90
35523;DHT22;61478;50.820;4.330;2023-11-21T15:12:08;13.70;99.90
35523;DHT22;61478;50.820;4.330;2023-11-21T15:14:47;13.70;99.90
35523;DHT22;61478;50.820;4.330;2023-11-21T15:17:14;13.70;99.90
35523;DHT22;61478;50.820;4.330;2023-11-21T15:19:54;13.70;99.90
35523;DHT22;61478;50.820;4.330;2023-11-21T15:22:20;13.70;99.90
35523;DHT22;61478;50.820;4.330;2023-11-21T15:24:46;13.60;99.90
35523;DHT22;61478;50.820;4.330;2023-11-21T15:27:15;13.50;99.90
35523;DHT22;61478;50.820;4.330;2023-11-21T15:29:44;13.50;99.90
35523;DHT22;61478;50.820;4.330;2023-11-21T15:32:09;13.50;99.90
35523;DHT22;61478;50.820;4.330;2023-11-21T15:34:35;13.50;99.90
35523;DHT22;61478;50.820;4.330;2023-11-21T15:37:01;13.50;99.90
35523;DHT22;61478;50.820;4.330;2023-11-21T15:39:28;13.40;99.90
35523;DHT22;61478;50.820;4.330;2023-11-21T15:41:56;13.40;99.90
35523;DHT22;61478;50.820;4.330;2023-11-21T15:44:22;13.50;99.90